sensor_id;sensor_type;location;lat;lon;timestamp;pressure;altitude;pressure_sealevel;temperature;humidity
65659;BME280;60181;53.258;6.932;2023-07-09T00:00:24;101975.25;;;23.44;61.11
65659;BME280;60181;53.258;6.932;2023-07-09T00:04:28;101975.51;;;23.43;61.54
65659;BME280;60181;53.258;6.932;2023-07-09T00:08:32;101976.01;;;23.43;62.02
65659;BME280;60181;53.258;6.932;2023-07-09T00:12:36;101976.70;;;23.43;61.63
65659;BME280;60181;53.258;6.932;2023-07-09T00:16:40;101975.27;;;23.42;60.95
65659;BME280;60181;53.258;6.932;2023-07-09T00:20:44;101974.86;;;23.42;60.73
65659;BME280;60181;53.258;6.932;2023-07-09T00:24:49;101974.19;;;23.41;60.83
65659;BME280;60181;53.258;6.932;2023-07-09T00:28:52;101974.37;;;23.41;60.90
65659;BME280;60181;53.258;6.932;2023-07-09T00:32:56;101975.02;;;23.40;60.73
65659;BME280;60181;53.258;6.932;2023-07-09T00:37:00;101974.88;;;23.40;60.66
65659;BME280;60181;53.258;6.932;2023-07-09T00:41:05;101974.03;;;23.39;60.49
65659;BME280;60181;53.258;6.932;2023-07-09T00:45:11;101973.46;;;23.39;60.34
65659;BME280;60181;53.258;6.932;2023-07-09T00:49:12;101972.20;;;23.39;60.14
65659;BME280;60181;53.258;6.932;2023-07-09T00:53:25;101970.89;;;23.38;60.11
65659;BME280;60181;53.258;6.932;2023-07-09T00:57:21;101970.61;;;23.38;60.06
65659;BME280;60181;53.258;6.932;2023-07-09T01:01:24;101970.46;;;23.37;60.08
65659;BME280;60181;53.258;6.932;2023-07-09T01:05:28;101968.70;;;23.37;60.04
65659;BME280;60181;53.258;6.932;2023-07-09T01:09:32;101967.55;;;23.36;60.08
65659;BME280;60181;53.258;6.932;2023-07-09T01:13:36;101966.37;;;23.36;59.94
65659;BME280;60181;53.258;6.932;2023-07-09T01:17:40;101964.87;;;23.34;60.12
65659;BME280;60181;53.258;6.932;2023-07-09T01:21:44;101963.89;;;23.34;60.14
65659;BME280;60181;53.258;6.932;2023-07-09T01:25:50;101962.22;;;23.33;60.00
65659;BME280;60181;53.258;6.932;2023-07-09T01:29:52;101961.29;;;23.32;59.90
65659;BME280;60181;53.258;6.932;2023-07-09T01:33:56;101961.38;;;23.32;59.70
65659;BME280;60181;53.258;6.932;2023-07-09T01:38:00;101960.97;;;23.32;59.72
65659;BME280;60181;53.258;6.932;2023-07-09T01:42:04;101961.06;;;23.31;59.72
65659;BME280;60181;53.258;6.932;2023-07-09T01:46:08;101963.07;;;23.31;59.71
65659;BME280;60181;53.258;6.932;2023-07-09T01:50:12;101965.33;;;23.31;59.80
65659;BME280;60181;53.258;6.932;2023-07-09T01:54:16;101966.67;;;23.30;59.77
65659;BME280;60181;53.258;6.932;2023-07-09T01:58:20;101967.01;;;23.29;59.99
65659;BME280;60181;53.258;6.932;2023-07-09T02:02:24;101966.58;;;23.28;59.81
65659;BME280;60181;53.258;6.932;2023-07-09T02:06:28;101965.52;;;23.27;59.80
65659;BME280;60181;53.258;6.932;2023-07-09T02:10:32;101964.10;;;23.26;59.81
65659;BME280;60181;53.258;6.932;2023-07-09T02:14:36;101961.27;;;23.25;59.85
65659;BME280;60181;53.258;6.932;2023-07-09T02:18:40;101958.59;;;23.24;59.74
65659;BME280;60181;53.258;6.932;2023-07-09T02:22:44;101956.16;;;23.23;59.93
65659;BME280;60181;53.258;6.932;2023-07-09T02:26:48;101953.50;;;23.23;59.72
65659;BME280;60181;53.258;6.932;2023-07-09T02:30:52;101951.09;;;23.23;59.60
65659;BME280;60181;53.258;6.932;2023-07-09T02:34:56;101948.64;;;23.22;59.58
65659;BME280;60181;53.258;6.932;2023-07-09T02:39:00;101947.56;;;23.22;59.64
65659;BME280;60181;53.258;6.932;2023-07-09T02:43:04;101946.98;;;23.21;59.70
65659;BME280;60181;53.258;6.932;2023-07-09T02:47:08;101947.33;;;23.21;59.77
65659;BME280;60181;53.258;6.932;2023-07-09T02:51:11;101947.85;;;23.20;59.78
65659;BME280;60181;53.258;6.932;2023-07-09T02:55:16;101947.23;;;23.19;59.75
65659;BME280;60181;53.258;6.932;2023-07-09T02:59:19;101947.05;;;23.19;59.52
65659;BME280;60181;53.258;6.932;2023-07-09T03:03:23;101945.65;;;23.18;59.72
65659;BME280;60181;53.258;6.932;2023-07-09T03:07:27;101944.30;;;23.18;59.77
65659;BME280;60181;53.258;6.932;2023-07-09T03:11:32;101941.91;;;23.17;59.40
65659;BME280;60181;53.258;6.932;2023-07-09T03:15:35;101940.31;;;23.16;59.62
65659;BME280;60181;53.258;6.932;2023-07-09T03:19:39;101939.90;;;23.16;59.59
65659;BME280;60181;53.258;6.932;2023-07-09T03:23:44;101940.47;;;23.16;59.47
65659;BME280;60181;53.258;6.932;2023-07-09T03:27:48;101940.63;;;23.16;59.40
65659;BME280;60181;53.258;6.932;2023-07-09T03:31:51;101942.14;;;23.16;59.54
65659;BME280;60181;53.258;6.932;2023-07-09T03:35:55;101943.66;;;23.15;59.49
65659;BME280;60181;53.258;6.932;2023-07-09T03:39:59;101947.00;;;23.15;59.54
65659;BME280;60181;53.258;6.932;2023-07-09T03:44:04;101948.94;;;23.15;59.49
65659;BME280;60181;53.258;6.932;2023-07-09T03:48:07;101950.33;;;23.15;59.45
65659;BME280;60181;53.258;6.932;2023-07-09T03:52:11;101950.85;;;23.14;59.49
65659;BME280;60181;53.258;6.932;2023-07-09T03:56:15;101951.11;;;23.14;59.26
65659;BME280;60181;53.258;6.932;2023-07-09T04:00:20;101952.04;;;23.11;59.37
65659;BME280;60181;53.258;6.932;2023-07-09T04:04:23;101953.39;;;23.08;59.39
65659;BME280;60181;53.258;6.932;2023-07-09T04:08:27;101954.50;;;23.06;59.28
65659;BME280;60181;53.258;6.932;2023-07-09T04:12:32;101953.91;;;23.04;59.26
65659;BME280;60181;53.258;6.932;2023-07-09T04:16:35;101952.59;;;23.03;59.17
65659;BME280;60181;53.258;6.932;2023-07-09T04:20:39;101952.67;;;23.02;59.03
65659;BME280;60181;53.258;6.932;2023-07-09T04:24:43;101953.27;;;23.02;59.01
65659;BME280;60181;53.258;6.932;2023-07-09T04:28:47;101952.09;;;23.02;58.92
65659;BME280;60181;53.258;6.932;2023-07-09T04:32:51;101950.67;;;23.02;58.91
65659;BME280;60181;53.258;6.932;2023-07-09T04:36:55;101949.73;;;23.03;58.85
65659;BME280;60181;53.258;6.932;2023-07-09T04:40:59;101948.74;;;23.04;58.91
65659;BME280;60181;53.258;6.932;2023-07-09T04:45:04;101948.97;;;23.06;58.90
65659;BME280;60181;53.258;6.932;2023-07-09T04:49:08;101948.49;;;23.06;58.99
65659;BME280;60181;53.258;6.932;2023-07-09T04:53:11;101948.57;;;23.07;59.01
65659;BME280;60181;53.258;6.932;2023-07-09T04:57:16;101949.22;;;23.07;59.06
65659;BME280;60181;53.258;6.932;2023-07-09T05:01:19;101951.39;;;23.08;59.05
65659;BME280;60181;53.258;6.932;2023-07-09T05:05:23;101951.89;;;23.08;59.11
65659;BME280;60181;53.258;6.932;2023-07-09T05:09:27;101952.47;;;23.09;59.12
65659;BME280;60181;53.258;6.932;2023-07-09T05:13:31;101952.66;;;23.08;59.39
65659;BME280;60181;53.258;6.932;2023-07-09T05:17:35;101952.29;;;23.09;59.19
65659;BME280;60181;53.258;6.932;2023-07-09T05:21:39;101951.72;;;23.10;59.21
65659;BME280;60181;53.258;6.932;2023-07-09T05:25:43;101951.11;;;23.15;62.52
65659;BME280;60181;53.258;6.932;2023-07-09T05:29:47;101949.73;;;23.18;61.93
65659;BME280;60181;53.258;6.932;2023-07-09T05:33:51;101949.16;;;23.21;60.73
65659;BME280;60181;53.258;6.932;2023-07-09T05:37:55;101950.33;;;23.24;60.91
65659;BME280;60181;53.258;6.932;2023-07-09T05:41:59;101952.04;;;23.27;60.55
65659;BME280;60181;53.258;6.932;2023-07-09T05:46:04;101954.85;;;23.32;59.72
65659;BME280;60181;53.258;6.932;2023-07-09T05:50:07;101958.36;;;23.36;59.87
65659;BME280;60181;53.258;6.932;2023-07-09T05:54:11;101960.85;;;23.38;60.01
65659;BME280;60181;53.258;6.932;2023-07-09T05:58:15;101962.75;;;23.39;60.03
65659;BME280;60181;53.258;6.932;2023-07-09T06:02:20;101963.75;;;23.40;60.03
65659;BME280;60181;53.258;6.932;2023-07-09T06:06:23;101964.50;;;23.41;59.96
65659;BME280;60181;53.258;6.932;2023-07-09T06:10:27;101967.01;;;23.42;59.95
65659;BME280;60181;53.258;6.932;2023-07-09T06:14:31;101968.34;;;23.43;60.00
65659;BME280;60181;53.258;6.932;2023-07-09T06:18:35;101968.32;;;23.43;59.90
65659;BME280;60181;53.258;6.932;2023-07-09T06:22:39;101968.58;;;23.44;59.97
65659;BME280;60181;53.258;6.932;2023-07-09T06:26:43;101970.00;;;23.45;59.82
65659;BME280;60181;53.258;6.932;2023-07-09T06:30:47;101971.15;;;23.45;59.85
65659;BME280;60181;53.258;6.932;2023-07-09T06:34:51;101973.00;;;23.46;59.84
65659;BME280;60181;53.258;6.932;2023-07-09T06:38:55;101975.57;;;23.47;59.86
65659;BME280;60181;53.258;6.932;2023-07-09T06:42:59;101977.09;;;23.47;59.90
65659;BME280;60181;53.258;6.932;2023-07-09T06:47:04;101978.49;;;23.48;59.92
65659;BME280;60181;53.258;6.932;2023-07-09T06:51:07;101980.15;;;23.49;59.95
65659;BME280;60181;53.258;6.932;2023-07-09T06:55:11;101981.56;;;23.52;59.71
65659;BME280;60181;53.258;6.932;2023-07-09T06:59:15;101982.36;;;23.56;59.60
65659;BME280;60181;53.258;6.932;2023-07-09T07:03:20;101984.33;;;23.64;59.12
65659;BME280;60181;53.258;6.932;2023-07-09T07:07:23;101985.69;;;23.71;58.95
65659;BME280;60181;53.258;6.932;2023-07-09T07:11:27;101988.40;;;23.77;58.86
65659;BME280;60181;53.258;6.932;2023-07-09T07:15:31;101993.02;;;23.83;58.73
65659;BME280;60181;53.258;6.932;2023-07-09T07:19:35;101995.56;;;23.89;58.62
65659;BME280;60181;53.258;6.932;2023-07-09T07:23:39;101996.37;;;23.94;58.71
65659;BME280;60181;53.258;6.932;2023-07-09T07:27:43;101997.53;;;23.97;58.71
65659;BME280;60181;53.258;6.932;2023-07-09T07:31:47;101996.95;;;23.99;58.85
65659;BME280;60181;53.258;6.932;2023-07-09T07:35:51;101995.31;;;24.03;58.42
65659;BME280;60181;53.258;6.932;2023-07-09T07:39:55;101992.42;;;24.08;58.25
65659;BME280;60181;53.258;6.932;2023-07-09T07:43:59;101989.79;;;24.13;58.11
65659;BME280;60181;53.258;6.932;2023-07-09T07:48:03;101988.73;;;24.17;58.04
65659;BME280;60181;53.258;6.932;2023-07-09T07:52:07;101987.69;;;24.22;57.95
65659;BME280;60181;53.258;6.932;2023-07-09T07:56:11;101986.05;;;24.27;58.07
65659;BME280;60181;53.258;6.932;2023-07-09T08:00:15;101985.75;;;24.31;57.96
65659;BME280;60181;53.258;6.932;2023-07-09T08:04:19;101985.55;;;24.35;57.89
65659;BME280;60181;53.258;6.932;2023-07-09T08:08:23;101985.78;;;24.37;58.13
65659;BME280;60181;53.258;6.932;2023-07-09T08:12:27;101986.60;;;24.38;58.23
65659;BME280;60181;53.258;6.932;2023-07-09T08:16:31;101987.61;;;24.37;58.40
65659;BME280;60181;53.258;6.932;2023-07-09T08:20:35;101989.14;;;24.35;58.47
65659;BME280;60181;53.258;6.932;2023-07-09T08:24:39;101991.41;;;24.35;58.39
65659;BME280;60181;53.258;6.932;2023-07-09T08:28:43;101994.65;;;24.36;58.15
65659;BME280;60181;53.258;6.932;2023-07-09T08:32:47;101996.38;;;24.40;58.05
65659;BME280;60181;53.258;6.932;2023-07-09T08:36:51;101998.46;;;24.42;58.19
65659;BME280;60181;53.258;6.932;2023-07-09T08:40:59;102001.01;;;24.45;58.18
65659;BME280;60181;53.258;6.932;2023-07-09T08:45:04;102001.29;;;24.49;58.21
65659;BME280;60181;53.258;6.932;2023-07-09T08:49:03;102000.24;;;24.53;58.16
65659;BME280;60181;53.258;6.932;2023-07-09T08:53:20;101998.03;;;24.56;58.28
65659;BME280;60181;53.258;6.932;2023-07-09T08:57:17;101996.25;;;24.58;58.48
65659;BME280;60181;53.258;6.932;2023-07-09T09:01:19;101994.46;;;24.60;58.58
65659;BME280;60181;53.258;6.932;2023-07-09T09:05:20;101994.46;;;24.62;58.59
65659;BME280;60181;53.258;6.932;2023-07-09T09:09:38;101992.77;;;24.62;58.75
65659;BME280;60181;53.258;6.932;2023-07-09T09:13:27;101990.66;;;24.63;58.79
65659;BME280;60181;53.258;6.932;2023-07-09T09:17:32;101989.65;;;24.64;58.67
65659;BME280;60181;53.258;6.932;2023-07-09T09:21:36;101988.46;;;24.65;58.81
65659;BME280;60181;53.258;6.932;2023-07-09T09:25:40;101989.87;;;24.67;58.83
65659;BME280;60181;53.258;6.932;2023-07-09T09:29:43;101990.76;;;24.68;58.98
65659;BME280;60181;53.258;6.932;2023-07-09T09:33:47;101990.95;;;24.70;58.93
65659;BME280;60181;53.258;6.932;2023-07-09T09:37:52;101992.50;;;24.73;59.25
65659;BME280;60181;53.258;6.932;2023-07-09T09:41:57;101993.49;;;24.75;59.92
65659;BME280;60181;53.258;6.932;2023-07-09T09:45:59;101994.05;;;24.78;60.02
65659;BME280;60181;53.258;6.932;2023-07-09T09:50:03;101993.69;;;24.79;60.54
65659;BME280;60181;53.258;6.932;2023-07-09T09:54:10;101993.84;;;24.80;61.01
65659;BME280;60181;53.258;6.932;2023-07-09T09:58:12;101993.91;;;24.82;61.48
65659;BME280;60181;53.258;6.932;2023-07-09T10:02:16;101994.65;;;24.82;61.29
65659;BME280;60181;53.258;6.932;2023-07-09T10:06:20;101997.24;;;24.84;61.58
65659;BME280;60181;53.258;6.932;2023-07-09T10:10:23;101999.65;;;24.85;61.78
65659;BME280;60181;53.258;6.932;2023-07-09T10:18:49;102001.47;;;24.88;61.95
65659;BME280;60181;53.258;6.932;2023-07-09T10:22:39;102002.97;;;24.89;62.10
65659;BME280;60181;53.258;6.932;2023-07-09T10:26:40;102004.19;;;24.89;62.27
65659;BME280;60181;53.258;6.932;2023-07-09T10:34:51;102005.19;;;24.90;62.52
65659;BME280;60181;53.258;6.932;2023-07-09T10:42:55;102005.59;;;24.92;62.73
65659;BME280;60181;53.258;6.932;2023-07-09T10:47:00;102004.81;;;24.93;63.09
65659;BME280;60181;53.258;6.932;2023-07-09T10:51:03;102002.91;;;24.93;63.26
65659;BME280;60181;53.258;6.932;2023-07-09T10:55:17;102001.26;;;24.95;63.02
65659;BME280;60181;53.258;6.932;2023-07-09T11:03:16;101998.46;;;24.99;63.42
65659;BME280;60181;53.258;6.932;2023-07-09T11:07:22;101998.94;;;25.02;63.34
65659;BME280;60181;53.258;6.932;2023-07-09T11:11:25;101998.38;;;25.04;63.45
65659;BME280;60181;53.258;6.932;2023-07-09T11:15:36;101996.79;;;25.05;63.51
65659;BME280;60181;53.258;6.932;2023-07-09T11:19:31;101994.80;;;25.04;63.77
65659;BME280;60181;53.258;6.932;2023-07-09T11:23:43;101990.94;;;25.04;63.77
65659;BME280;60181;53.258;6.932;2023-07-09T11:27:46;101986.16;;;25.05;63.74
65659;BME280;60181;53.258;6.932;2023-07-09T11:31:44;101980.95;;;25.06;63.87
65659;BME280;60181;53.258;6.932;2023-07-09T11:35:48;101976.15;;;25.06;63.89
65659;BME280;60181;53.258;6.932;2023-07-09T11:39:51;101971.39;;;25.06;63.97
65659;BME280;60181;53.258;6.932;2023-07-09T11:44:05;101965.94;;;25.05;63.73
65659;BME280;60181;53.258;6.932;2023-07-09T11:52:04;101954.80;;;25.04;63.72
65659;BME280;60181;53.258;6.932;2023-07-09T11:56:07;101950.98;;;25.03;64.11
65659;BME280;60181;53.258;6.932;2023-07-09T12:00:11;101947.88;;;25.03;63.92
65659;BME280;60181;53.258;6.932;2023-07-09T12:04:16;101944.78;;;25.03;63.97
65659;BME280;60181;53.258;6.932;2023-07-09T12:12:24;101943.52;;;25.02;63.86
65659;BME280;60181;53.258;6.932;2023-07-09T12:16:28;101942.35;;;25.02;63.84
65659;BME280;60181;53.258;6.932;2023-07-09T12:20:32;101939.67;;;25.02;63.83
65659;BME280;60181;53.258;6.932;2023-07-09T12:24:39;101938.42;;;25.02;63.78
65659;BME280;60181;53.258;6.932;2023-07-09T12:28:39;101938.00;;;25.02;63.69
65659;BME280;60181;53.258;6.932;2023-07-09T12:32:43;101938.54;;;25.04;64.34
65659;BME280;60181;53.258;6.932;2023-07-09T12:36:48;101937.40;;;25.07;64.81
65659;BME280;60181;53.258;6.932;2023-07-09T12:40:51;101934.84;;;25.12;64.55
65659;BME280;60181;53.258;6.932;2023-07-09T12:44:55;101931.08;;;25.17;64.50
65659;BME280;60181;53.258;6.932;2023-07-09T12:48:59;101928.74;;;25.22;64.26
65659;BME280;60181;53.258;6.932;2023-07-09T12:53:08;101928.08;;;25.26;64.43
65659;BME280;60181;53.258;6.932;2023-07-09T12:57:15;101927.81;;;25.26;64.65
65659;BME280;60181;53.258;6.932;2023-07-09T13:01:15;101927.34;;;25.26;64.76
65659;BME280;60181;53.258;6.932;2023-07-09T13:05:19;101926.05;;;25.27;64.66
65659;BME280;60181;53.258;6.932;2023-07-09T13:09:20;101922.10;;;25.27;64.68
65659;BME280;60181;53.258;6.932;2023-07-09T13:13:23;101918.49;;;25.28;64.61
65659;BME280;60181;53.258;6.932;2023-07-09T13:17:30;101915.97;;;25.29;64.71
65659;BME280;60181;53.258;6.932;2023-07-09T13:21:31;101914.47;;;25.28;65.33
65659;BME280;60181;53.258;6.932;2023-07-09T13:25:35;101913.73;;;25.26;65.46
65659;BME280;60181;53.258;6.932;2023-07-09T13:29:39;101914.39;;;25.22;65.53
65659;BME280;60181;53.258;6.932;2023-07-09T13:33:43;101915.81;;;25.18;65.75
65659;BME280;60181;53.258;6.932;2023-07-09T13:37:47;101917.47;;;25.13;65.55
65659;BME280;60181;53.258;6.932;2023-07-09T13:41:51;101918.53;;;25.10;66.01
65659;BME280;60181;53.258;6.932;2023-07-09T13:45:55;101918.89;;;25.07;65.85
65659;BME280;60181;53.258;6.932;2023-07-09T13:49:59;101917.83;;;25.05;66.02
65659;BME280;60181;53.258;6.932;2023-07-09T13:54:05;101914.35;;;25.03;65.90
65659;BME280;60181;53.258;6.932;2023-07-09T13:58:08;101912.68;;;25.02;66.10
65659;BME280;60181;53.258;6.932;2023-07-09T14:02:17;101908.77;;;25.01;65.94
65659;BME280;60181;53.258;6.932;2023-07-09T14:06:15;101902.80;;;25.01;66.15
65659;BME280;60181;53.258;6.932;2023-07-09T14:10:19;101892.41;;;25.01;66.03
65659;BME280;60181;53.258;6.932;2023-07-09T14:14:24;101882.29;;;25.01;66.10
65659;BME280;60181;53.258;6.932;2023-07-09T14:18:27;101873.22;;;25.01;66.66
65659;BME280;60181;53.258;6.932;2023-07-09T14:22:34;101863.86;;;25.05;66.07
65659;BME280;60181;53.258;6.932;2023-07-09T14:26:35;101855.78;;;25.07;66.09
65659;BME280;60181;53.258;6.932;2023-07-09T14:30:39;101847.71;;;25.09;66.28
65659;BME280;60181;53.258;6.932;2023-07-09T14:34:43;101841.75;;;25.11;66.07
65659;BME280;60181;53.258;6.932;2023-07-09T14:38:47;101836.21;;;25.11;66.25
65659;BME280;60181;53.258;6.932;2023-07-09T14:42:51;101830.74;;;25.11;66.00
65659;BME280;60181;53.258;6.932;2023-07-09T14:46:56;101827.73;;;25.09;66.01
65659;BME280;60181;53.258;6.932;2023-07-09T14:50:59;101825.34;;;25.08;65.96
65659;BME280;60181;53.258;6.932;2023-07-09T14:55:03;101823.66;;;25.08;66.12
65659;BME280;60181;53.258;6.932;2023-07-09T14:59:07;101824.19;;;25.08;66.02
65659;BME280;60181;53.258;6.932;2023-07-09T15:03:11;101820.00;;;25.06;65.98
65659;BME280;60181;53.258;6.932;2023-07-09T15:07:15;101807.23;;;25.04;65.96
65659;BME280;60181;53.258;6.932;2023-07-09T15:11:19;101798.78;;;25.03;66.25
65659;BME280;60181;53.258;6.932;2023-07-09T15:15:29;101795.72;;;25.00;66.29
65659;BME280;60181;53.258;6.932;2023-07-09T15:19:27;101794.76;;;24.98;66.36
65659;BME280;60181;53.258;6.932;2023-07-09T15:23:31;101795.12;;;24.95;66.47
65659;BME280;60181;53.258;6.932;2023-07-09T15:27:35;101793.50;;;24.92;66.38
65659;BME280;60181;53.258;6.932;2023-07-09T15:31:39;101794.45;;;24.90;66.25
65659;BME280;60181;53.258;6.932;2023-07-09T15:35:43;101793.41;;;24.88;66.36
65659;BME280;60181;53.258;6.932;2023-07-09T15:39:47;101796.69;;;24.86;66.24
65659;BME280;60181;53.258;6.932;2023-07-09T15:43:50;101800.68;;;24.84;66.17
65659;BME280;60181;53.258;6.932;2023-07-09T15:47:54;101807.31;;;24.82;66.20
65659;BME280;60181;53.258;6.932;2023-07-09T15:52:00;101819.08;;;24.81;66.12
65659;BME280;60181;53.258;6.932;2023-07-09T15:56:04;101830.59;;;24.78;66.22
65659;BME280;60181;53.258;6.932;2023-07-09T16:00:13;101839.98;;;24.77;66.17
65659;BME280;60181;53.258;6.932;2023-07-09T16:04:10;101851.98;;;24.76;66.20
65659;BME280;60181;53.258;6.932;2023-07-09T16:08:14;101892.05;;;24.75;66.20
65659;BME280;60181;53.258;6.932;2023-07-09T16:12:18;101932.76;;;24.74;66.19
65659;BME280;60181;53.258;6.932;2023-07-09T16:16:23;101958.76;;;24.72;66.17
65659;BME280;60181;53.258;6.932;2023-07-09T16:20:27;101978.03;;;24.70;66.14
65659;BME280;60181;53.258;6.932;2023-07-09T16:24:32;101983.73;;;24.69;66.17
65659;BME280;60181;53.258;6.932;2023-07-09T16:28:34;101978.91;;;24.67;66.05
65659;BME280;60181;53.258;6.932;2023-07-09T16:32:38;101968.85;;;24.66;65.98
65659;BME280;60181;53.258;6.932;2023-07-09T16:36:42;101966.35;;;24.65;65.93
65659;BME280;60181;53.258;6.932;2023-07-09T16:40:46;101971.74;;;24.63;65.88
65659;BME280;60181;53.258;6.932;2023-07-09T16:44:50;101965.31;;;24.62;65.81
65659;BME280;60181;53.258;6.932;2023-07-09T16:48:54;101952.08;;;24.60;65.73
65659;BME280;60181;53.258;6.932;2023-07-09T16:52:58;101946.08;;;24.59;65.80
65659;BME280;60181;53.258;6.932;2023-07-09T16:57:02;101939.98;;;24.58;65.63
65659;BME280;60181;53.258;6.932;2023-07-09T17:01:07;101932.62;;;24.56;65.60
65659;BME280;60181;53.258;6.932;2023-07-09T17:05:10;101924.27;;;24.54;65.58
65659;BME280;60181;53.258;6.932;2023-07-09T17:09:16;101916.35;;;24.53;65.46
65659;BME280;60181;53.258;6.932;2023-07-09T17:17:24;101905.97;;;24.51;65.45
65659;BME280;60181;53.258;6.932;2023-07-09T17:21:26;101900.65;;;24.50;65.31
65659;BME280;60181;53.258;6.932;2023-07-09T17:25:31;101899.13;;;24.49;65.46
65659;BME280;60181;53.258;6.932;2023-07-09T17:29:34;101944.32;;;24.51;65.30
65659;BME280;60181;53.258;6.932;2023-07-09T17:33:38;102015.92;;;24.53;65.27
65659;BME280;60181;53.258;6.932;2023-07-09T17:37:44;102066.49;;;24.54;65.31
65659;BME280;60181;53.258;6.932;2023-07-09T17:41:47;102110.36;;;24.55;65.21
65659;BME280;60181;53.258;6.932;2023-07-09T17:45:51;102137.75;;;24.56;65.33
65659;BME280;60181;53.258;6.932;2023-07-09T17:49:54;102154.66;;;24.56;65.21
65659;BME280;60181;53.258;6.932;2023-07-09T17:53:58;102162.70;;;24.56;65.29
65659;BME280;60181;53.258;6.932;2023-07-09T17:58:02;102163.78;;;24.56;65.21
65659;BME280;60181;53.258;6.932;2023-07-09T18:06:12;102172.91;;;24.56;65.25
65659;BME280;60181;53.258;6.932;2023-07-09T18:10:14;102175.28;;;24.55;65.10
65659;BME280;60181;53.258;6.932;2023-07-09T18:14:19;102175.11;;;24.55;65.12
65659;BME280;60181;53.258;6.932;2023-07-09T18:18:22;102168.24;;;24.55;65.08
65659;BME280;60181;53.258;6.932;2023-07-09T18:22:26;102160.96;;;24.54;65.17
65659;BME280;60181;53.258;6.932;2023-07-09T18:26:30;102154.08;;;24.54;65.04
65659;BME280;60181;53.258;6.932;2023-07-09T18:30:35;102146.47;;;24.54;65.01
65659;BME280;60181;53.258;6.932;2023-07-09T18:34:38;102141.11;;;24.54;64.87
65659;BME280;60181;53.258;6.932;2023-07-09T18:38:42;102135.07;;;24.54;64.94
65659;BME280;60181;53.258;6.932;2023-07-09T18:42:46;102131.00;;;24.53;64.97
65659;BME280;60181;53.258;6.932;2023-07-09T18:46:50;102126.22;;;24.52;64.99
65659;BME280;60181;53.258;6.932;2023-07-09T18:50:55;102122.11;;;24.51;65.00
65659;BME280;60181;53.258;6.932;2023-07-09T18:54:58;102118.94;;;24.50;65.00
65659;BME280;60181;53.258;6.932;2023-07-09T18:59:10;102114.43;;;24.50;64.94
65659;BME280;60181;53.258;6.932;2023-07-09T19:03:08;102108.32;;;24.49;64.91
65659;BME280;60181;53.258;6.932;2023-07-09T19:07:11;102100.86;;;24.48;64.88
65659;BME280;60181;53.258;6.932;2023-07-09T19:11:14;102093.02;;;24.48;64.84
65659;BME280;60181;53.258;6.932;2023-07-09T19:15:21;102086.47;;;24.47;64.77
65659;BME280;60181;53.258;6.932;2023-07-09T19:19:22;102082.47;;;24.47;64.74
65659;BME280;60181;53.258;6.932;2023-07-09T19:23:26;102080.81;;;24.46;64.72
65659;BME280;60181;53.258;6.932;2023-07-09T19:27:30;102082.64;;;24.46;64.68
65659;BME280;60181;53.258;6.932;2023-07-09T19:31:34;102085.58;;;24.45;64.59
65659;BME280;60181;53.258;6.932;2023-07-09T19:35:38;102080.16;;;24.45;64.56
65659;BME280;60181;53.258;6.932;2023-07-09T19:39:42;102069.16;;;24.45;64.53
65659;BME280;60181;53.258;6.932;2023-07-09T19:43:46;102058.36;;;24.45;64.49
65659;BME280;60181;53.258;6.932;2023-07-09T19:47:50;102050.59;;;24.44;64.47
65659;BME280;60181;53.258;6.932;2023-07-09T19:51:55;102041.64;;;24.44;64.49
65659;BME280;60181;53.258;6.932;2023-07-09T19:55:58;102034.00;;;24.44;64.47
65659;BME280;60181;53.258;6.932;2023-07-09T20:00:02;102029.47;;;24.44;64.55
65659;BME280;60181;53.258;6.932;2023-07-09T20:04:06;102025.45;;;24.44;64.54
65659;BME280;60181;53.258;6.932;2023-07-09T20:08:14;102023.44;;;24.44;64.44
65659;BME280;60181;53.258;6.932;2023-07-09T20:12:23;102021.44;;;24.44;64.55
65659;BME280;60181;53.258;6.932;2023-07-09T20:16:26;102017.44;;;24.43;64.53
65659;BME280;60181;53.258;6.932;2023-07-09T20:20:23;102016.44;;;24.43;64.54
65659;BME280;60181;53.258;6.932;2023-07-09T20:24:26;102013.44;;;24.43;64.44
65659;BME280;60181;53.258;6.932;2023-07-09T20:28:30;102010.58;;;24.42;64.57
65659;BME280;60181;53.258;6.932;2023-07-09T20:32:34;102009.16;;;24.42;64.56
65659;BME280;60181;53.258;6.932;2023-07-09T20:36:38;102008.31;;;24.41;64.55
65659;BME280;60181;53.258;6.932;2023-07-09T20:40:43;102009.34;;;24.41;64.49
65659;BME280;60181;53.258;6.932;2023-07-09T20:44:46;102010.44;;;24.41;64.61
65659;BME280;60181;53.258;6.932;2023-07-09T20:48:50;102010.60;;;24.40;64.61
65659;BME280;60181;53.258;6.932;2023-07-09T20:52:54;102011.35;;;24.40;64.53
65659;BME280;60181;53.258;6.932;2023-07-09T20:56:59;102014.04;;;24.39;64.57
65659;BME280;60181;53.258;6.932;2023-07-09T21:01:02;102018.10;;;24.36;64.47
65659;BME280;60181;53.258;6.932;2023-07-09T21:05:06;102023.39;;;24.33;64.67
65659;BME280;60181;53.258;6.932;2023-07-09T21:09:13;102027.51;;;24.31;64.79
65659;BME280;60181;53.258;6.932;2023-07-09T21:13:23;102029.64;;;24.29;64.89
65659;BME280;60181;53.258;6.932;2023-07-09T21:17:19;102031.91;;;24.27;64.87
65659;BME280;60181;53.258;6.932;2023-07-09T21:21:22;102035.55;;;24.25;65.03
65659;BME280;60181;53.258;6.932;2023-07-09T21:25:26;102037.81;;;24.23;65.06
65659;BME280;60181;53.258;6.932;2023-07-09T21:29:30;102040.18;;;24.22;65.09
65659;BME280;60181;53.258;6.932;2023-07-09T21:33:34;102042.11;;;24.20;65.06
65659;BME280;60181;53.258;6.932;2023-07-09T21:37:38;102043.21;;;24.19;65.10
65659;BME280;60181;53.258;6.932;2023-07-09T21:41:46;102042.31;;;24.17;65.22
65659;BME280;60181;53.258;6.932;2023-07-09T21:45:46;102042.91;;;24.16;65.21